createdAt,value
2023-03-08T00:01:16.531Z,2.80
2023-03-08T00:03:43.714Z,2.84
2023-03-08T00:06:15.657Z,2.95
2023-03-08T00:08:43.078Z,2.81
2023-03-08T00:11:12.326Z,2.82
2023-03-08T00:13:39.844Z,2.86
2023-03-08T00:16:09.023Z,2.80
2023-03-08T00:18:36.250Z,2.76
2023-03-08T00:21:09.427Z,2.71
2023-03-08T00:23:35.974Z,2.56
2023-03-08T00:26:03.203Z,2.38
2023-03-08T00:28:30.141Z,2.47
2023-03-08T00:31:00.270Z,2.35
2023-03-08T00:33:27.699Z,2.35
2023-03-08T00:35:56.488Z,2.38
2023-03-08T00:38:23.196Z,2.36
2023-03-08T00:40:49.720Z,2.38
2023-03-08T00:43:16.189Z,2.29
2023-03-08T00:45:42.936Z,2.23
2023-03-08T00:48:09.604Z,2.14
2023-03-08T00:50:36.142Z,2.23
2023-03-08T00:53:03.052Z,2.10
2023-03-08T00:55:29.721Z,1.92
2023-03-08T00:57:56.223Z,1.80
2023-03-08T01:00:23.842Z,1.67
2023-03-08T01:02:50.909Z,1.65
2023-03-08T01:05:17.571Z,1.64
2023-03-08T01:07:44.117Z,1.63
2023-03-08T01:10:11.264Z,1.64
2023-03-08T01:12:38.389Z,1.66
2023-03-08T01:15:06.124Z,1.63
2023-03-08T01:17:33.436Z,1.60
2023-03-08T01:19:59.942Z,1.53
2023-03-08T01:22:26.419Z,1.45
2023-03-08T01:24:54.341Z,1.35
2023-03-08T01:27:20.850Z,1.29
2023-03-08T01:29:47.342Z,1.21
2023-03-08T01:32:13.907Z,1.19
2023-03-08T01:34:40.391Z,1.16
2023-03-08T01:37:06.955Z,1.16
2023-03-08T01:39:33.494Z,1.11
2023-03-08T01:42:07.147Z,1.15
2023-03-08T01:45:28.034Z,1.21
2023-03-08T01:47:54.579Z,1.27
2023-03-08T01:50:26.082Z,1.23
2023-03-08T01:52:55.091Z,1.11
2023-03-08T01:55:22.253Z,1.06
2023-03-08T01:57:53.984Z,1.14
2023-03-08T02:00:24.848Z,1.10
2023-03-08T02:03:03.038Z,1.17
2023-03-08T02:05:30.798Z,1.12
2023-03-08T02:08:04.420Z,1.17
2023-03-08T02:10:35.568Z,1.14
2023-03-08T02:13:04.390Z,1.14
2023-03-08T02:15:31.282Z,1.20
2023-03-08T02:17:58.037Z,1.19
2023-03-08T02:20:30.675Z,1.16
2023-03-08T02:23:09.020Z,1.14
2023-03-08T02:25:35.467Z,1.12
2023-03-08T02:28:03.441Z,1.08
2023-03-08T02:30:33.439Z,1.04
2023-03-08T02:32:59.972Z,1.10
2023-03-08T02:35:28.938Z,1.13
2023-03-08T02:37:55.794Z,1.06
2023-03-08T02:40:22.337Z,1.08
2023-03-08T02:42:48.985Z,1.16
2023-03-08T02:45:15.923Z,1.13
2023-03-08T02:47:42.458Z,1.13
2023-03-08T02:50:09.793Z,1.13
2023-03-08T02:52:36.275Z,1.10
2023-03-08T02:55:03.491Z,1.14
2023-03-08T02:57:30.365Z,1.12
2023-03-08T02:59:56.907Z,1.06
2023-03-08T03:02:25.855Z,1.13
2023-03-08T03:04:52.348Z,1.17
2023-03-08T03:07:19.073Z,1.12
2023-03-08T03:09:45.639Z,1.22
2023-03-08T03:12:13.305Z,1.22
2023-03-08T03:14:41.902Z,1.21
2023-03-08T03:17:08.472Z,1.25
2023-03-08T03:19:34.977Z,1.27
2023-03-08T03:22:01.616Z,1.22
2023-03-08T03:24:29.179Z,1.29
2023-03-08T03:26:58.078Z,1.32
2023-03-08T03:29:27.493Z,1.37
2023-03-08T03:32:03.847Z,1.31
2023-03-08T03:34:31.015Z,1.30
2023-03-08T03:36:57.597Z,1.30
2023-03-08T03:39:24.122Z,1.28
2023-03-08T03:41:51.529Z,1.31
2023-03-08T03:44:18.794Z,1.21
2023-03-08T03:46:47.660Z,1.12
2023-03-08T03:49:17.500Z,1.13
2023-03-08T03:51:46.230Z,1.14
2023-03-08T03:54:31.210Z,1.07
2023-03-08T03:57:00.276Z,1.11
2023-03-08T03:59:30.616Z,1.09
2023-03-08T04:01:57.300Z,1.08
2023-03-08T04:04:32.267Z,1.08
2023-03-08T04:06:59.070Z,0.86
2023-03-08T04:09:30.008Z,0.72
2023-03-08T04:12:07.424Z,0.62
2023-03-08T04:14:35.793Z,0.66
2023-03-08T04:17:03.354Z,0.70
2023-03-08T04:19:37.617Z,0.79
2023-03-08T04:22:05.163Z,0.90
2023-03-08T04:24:38.432Z,0.97
2023-03-08T04:27:10.048Z,1.07
2023-03-08T04:29:36.914Z,1.00
2023-03-08T04:32:04.090Z,0.99
2023-03-08T04:34:39.626Z,1.04
2023-03-08T04:37:07.381Z,1.04
2023-03-08T04:39:34.081Z,1.10
2023-03-08T04:42:00.617Z,1.10
2023-03-08T04:44:30.503Z,1.17
2023-03-08T04:46:57.320Z,1.11
2023-03-08T04:49:34.475Z,1.15
2023-03-08T04:52:02.757Z,1.25
2023-03-08T04:54:30.228Z,1.30
2023-03-08T04:57:02.203Z,1.17
2023-03-08T04:59:30.191Z,1.13
2023-03-08T05:01:59.518Z,1.18
2023-03-08T05:04:26.911Z,1.19
2023-03-08T05:06:53.345Z,1.16
2023-03-08T05:09:24.107Z,1.17
2023-03-08T05:11:52.294Z,1.21
2023-03-08T05:14:18.889Z,1.21
2023-03-08T05:16:45.448Z,1.24
2023-03-08T05:19:12.307Z,1.24
2023-03-08T05:21:46.130Z,1.23
2023-03-08T05:24:13.708Z,1.26
2023-03-08T05:26:40.396Z,1.29
2023-03-08T05:29:08.435Z,1.39
2023-03-08T05:31:37.730Z,1.38
2023-03-08T05:34:06.131Z,1.38
2023-03-08T05:36:36.615Z,1.42
2023-03-08T05:39:06.838Z,1.45
2023-03-08T05:41:43.056Z,1.37
2023-03-08T05:44:10.642Z,1.39
2023-03-08T05:46:39.249Z,1.48
2023-03-08T05:49:07.463Z,1.36
2023-03-08T05:51:35.693Z,1.39
2023-03-08T05:54:02.461Z,1.33
2023-03-08T05:56:31.394Z,1.31
2023-03-08T05:59:06.780Z,1.50
2023-03-08T06:01:33.291Z,1.42
2023-03-08T06:04:09.534Z,1.39
2023-03-08T06:06:39.572Z,1.44
2023-03-08T06:09:06.279Z,1.48
2023-03-08T06:11:35.163Z,1.51
2023-03-08T06:14:02.469Z,1.47
2023-03-08T06:16:31.322Z,1.59
2023-03-08T06:18:58.100Z,1.64
2023-03-08T06:21:25.778Z,1.85
2023-03-08T06:23:58.638Z,1.92
2023-03-08T06:26:25.139Z,1.83
2023-03-08T06:28:52.131Z,1.88
2023-03-08T06:31:19.669Z,1.93
2023-03-08T06:33:46.631Z,1.97
2023-03-08T06:36:20.852Z,2.03
2023-03-08T06:38:49.477Z,2.07
2023-03-08T06:41:19.184Z,2.14
2023-03-08T06:43:49.422Z,2.23
2023-03-08T06:46:17.697Z,2.26
2023-03-08T06:48:45.386Z,2.21
2023-03-08T06:51:12.528Z,2.24
2023-03-08T06:53:43.042Z,2.44
2023-03-08T06:56:13.161Z,2.28
2023-03-08T06:58:40.239Z,2.45
2023-03-08T07:01:09.593Z,2.28
2023-03-08T07:03:36.684Z,2.21
2023-03-08T07:06:05.897Z,2.19
2023-03-08T07:08:32.827Z,2.27
2023-03-08T07:10:59.950Z,2.27
2023-03-08T07:13:26.857Z,2.35
2023-03-08T07:15:53.490Z,2.37
2023-03-08T07:18:20.373Z,2.32
2023-03-08T07:20:52.654Z,2.31
2023-03-08T07:23:19.250Z,2.39
2023-03-08T07:25:45.771Z,2.41
2023-03-08T07:28:12.358Z,2.36
2023-03-08T07:30:38.864Z,2.36
2023-03-08T07:33:05.388Z,2.38
2023-03-08T07:35:31.932Z,2.31
2023-03-08T07:37:58.401Z,2.25
2023-03-08T07:40:24.944Z,2.38
2023-03-08T07:42:51.429Z,2.25
2023-03-08T07:45:39.726Z,2.12
2023-03-08T07:48:06.779Z,2.24
2023-03-08T07:50:33.456Z,2.24
2023-03-08T07:53:00.153Z,2.32
2023-03-08T07:55:27.517Z,2.46
2023-03-08T07:57:54.060Z,2.25
2023-03-08T08:00:20.912Z,2.30
2023-03-08T08:02:48.092Z,2.32
2023-03-08T08:05:14.813Z,2.46
2023-03-08T08:07:41.315Z,2.37
2023-03-08T08:10:08.333Z,2.41
2023-03-08T08:12:34.905Z,2.49
2023-03-08T08:15:01.360Z,2.50
2023-03-08T08:17:27.852Z,2.34
2023-03-08T08:19:54.328Z,2.38
2023-03-08T08:22:20.813Z,2.46
2023-03-08T08:24:47.347Z,2.47
2023-03-08T08:27:15.272Z,2.49
2023-03-08T08:29:44.060Z,2.20
2023-03-08T08:32:10.496Z,2.19
2023-03-08T08:34:36.920Z,2.31
2023-03-08T08:37:04.092Z,2.42
2023-03-08T08:39:30.577Z,2.53
2023-03-08T08:41:57.131Z,2.55
2023-03-08T08:44:23.599Z,2.77
2023-03-08T08:46:50.134Z,2.51
2023-03-08T08:49:16.620Z,2.64
2023-03-08T08:51:43.370Z,2.68
2023-03-08T08:54:09.940Z,2.68
2023-03-08T08:56:42.556Z,2.90
2023-03-08T08:59:11.681Z,2.80
2023-03-08T09:01:43.491Z,2.95
2023-03-08T09:04:12.251Z,3.10
2023-03-08T09:06:39.881Z,3.02
2023-03-08T09:09:06.758Z,3.10
2023-03-08T09:11:37.776Z,2.93
2023-03-08T09:14:12.116Z,3.05
2023-03-08T09:16:38.706Z,3.11
2023-03-08T09:19:06.022Z,2.91
2023-03-08T09:21:34.156Z,2.85
2023-03-08T09:24:02.806Z,3.02
2023-03-08T09:26:33.677Z,3.02
2023-03-08T09:29:04.996Z,2.96
2023-03-08T09:31:33.382Z,3.01
2023-03-08T09:34:00.243Z,3.18
2023-03-08T09:36:28.714Z,3.04
2023-03-08T09:38:56.172Z,3.12
2023-03-08T09:41:45.314Z,3.10
2023-03-08T09:44:48.932Z,3.09
2023-03-08T09:47:30.257Z,3.16
2023-03-08T09:50:17.077Z,3.29
2023-03-08T09:53:00.181Z,3.35
2023-03-08T09:55:43.842Z,3.44
2023-03-08T09:58:45.726Z,3.67
2023-03-08T10:01:38.057Z,3.77
2023-03-08T10:04:27.833Z,3.92
2023-03-08T10:06:54.263Z,3.97
2023-03-08T10:09:36.951Z,3.94
2023-03-08T10:12:17.171Z,3.95
2023-03-08T10:14:50.255Z,4.08
2023-03-08T10:17:21.957Z,4.23
2023-03-08T10:20:11.456Z,4.40
2023-03-08T10:22:42.368Z,4.60
2023-03-08T10:25:18.959Z,4.82
2023-03-08T10:27:48.171Z,5.08
2023-03-08T10:30:17.227Z,5.33
2023-03-08T10:32:46.819Z,5.48
2023-03-08T10:35:13.712Z,5.64
2023-03-08T10:37:40.351Z,5.70
2023-03-08T10:40:10.721Z,5.84
2023-03-08T10:42:37.460Z,5.80
2023-03-08T10:45:15.417Z,5.91
2023-03-08T10:47:41.954Z,6.07
2023-03-08T10:50:08.417Z,6.19
2023-03-08T10:52:35.345Z,6.24
2023-03-08T10:55:38.072Z,6.38
2023-03-08T10:58:06.300Z,6.54
2023-03-08T11:00:38.306Z,6.66
2023-03-08T11:03:13.883Z,6.81
2023-03-08T11:05:54.592Z,7.06
2023-03-08T11:08:33.252Z,7.34
2023-03-08T11:11:11.661Z,7.49
2023-03-08T11:13:41.831Z,7.61
2023-03-08T11:16:08.522Z,7.61
2023-03-08T11:19:18.200Z,7.72
2023-03-08T11:21:56.175Z,7.79
2023-03-08T11:24:39.693Z,7.89
2023-03-08T11:27:16.878Z,7.89
2023-03-08T11:29:46.006Z,7.94
2023-03-08T11:32:20.010Z,7.99
2023-03-08T11:35:08.115Z,8.13
2023-03-08T11:37:44.037Z,8.23
2023-03-08T11:40:25.496Z,8.21
2023-03-08T11:43:50.637Z,8.35
2023-03-08T11:46:55.874Z,8.31
2023-03-08T11:49:40.716Z,8.39
2023-03-08T11:52:21.910Z,8.52
2023-03-08T11:54:56.908Z,8.63
2023-03-08T11:57:29.916Z,8.64
2023-03-08T12:00:09.743Z,8.54
2023-03-08T12:02:45.487Z,8.67
2023-03-08T12:05:28.078Z,8.83
2023-03-08T12:08:25.436Z,8.98
2023-03-08T12:10:56.741Z,8.98
2023-03-08T12:13:23.124Z,9.09
2023-03-08T12:16:25.162Z,9.07
2023-03-08T12:19:16.210Z,9.26
2023-03-08T12:22:21.536Z,9.39
2023-03-08T12:24:54.236Z,9.29
2023-03-08T12:27:51.953Z,9.29
2023-03-08T12:30:42.843Z,9.49
2023-03-08T12:33:13.735Z,9.44
2023-03-08T12:35:58.824Z,9.29
2023-03-08T12:38:37.660Z,9.33
2023-03-08T12:41:09.564Z,9.36
2023-03-08T12:43:36.321Z,9.40
2023-03-08T12:46:04.991Z,9.50
2023-03-08T12:48:32.454Z,9.65
2023-03-08T12:51:01.440Z,9.60
2023-03-08T12:53:36.554Z,9.70
2023-03-08T12:56:09.092Z,9.70
2023-03-08T12:58:56.992Z,9.75
2023-03-08T13:01:29.727Z,9.91
2023-03-08T13:03:56.892Z,9.98
2023-03-08T13:06:23.343Z,10.02
2023-03-08T13:08:55.745Z,10.14
2023-03-08T13:11:25.534Z,10.27
2023-03-08T13:13:57.609Z,10.35
2023-03-08T13:16:38.647Z,10.26
2023-03-08T13:19:14.672Z,10.34
2023-03-08T13:21:56.389Z,10.23
2023-03-08T13:24:42.840Z,10.37
2023-03-08T13:27:44.820Z,10.10
2023-03-08T13:30:32.369Z,9.75
2023-03-08T13:32:59.965Z,9.72
2023-03-08T13:35:27.087Z,9.82
2023-03-08T13:37:56.855Z,9.66
2023-03-08T13:40:23.809Z,9.75
2023-03-08T13:42:59.129Z,9.72
2023-03-08T13:45:26.652Z,9.39
2023-03-08T13:47:55.491Z,9.23
2023-03-08T13:50:30.190Z,9.09
2023-03-08T13:52:57.462Z,9.05
2023-03-08T13:55:51.320Z,9.05
2023-03-08T13:58:31.463Z,9.15
2023-03-08T14:01:03.513Z,9.15
2023-03-08T14:03:31.934Z,9.21
2023-03-08T14:05:58.925Z,9.41
2023-03-08T14:08:27.549Z,9.59
2023-03-08T14:10:59.587Z,9.64
2023-03-08T14:13:35.839Z,9.72
2023-03-08T14:16:05.465Z,9.66
2023-03-08T14:18:43.562Z,9.63
2023-03-08T14:21:25.422Z,9.54
2023-03-08T14:23:56.727Z,9.42
2023-03-08T14:26:31.553Z,9.56
2023-03-08T14:29:21.620Z,9.55
2023-03-08T14:31:54.108Z,9.48
2023-03-08T14:34:29.036Z,9.62
2023-03-08T14:36:59.203Z,9.58
2023-03-08T14:39:28.194Z,9.45
2023-03-08T14:41:55.773Z,9.49
2023-03-08T14:44:28.179Z,9.36
2023-03-08T14:46:58.662Z,9.29
2023-03-08T14:49:28.170Z,9.09
2023-03-08T14:51:55.422Z,9.18
2023-03-08T14:54:33.080Z,9.04
2023-03-08T14:57:13.793Z,9.04
2023-03-08T14:59:41.393Z,9.05
2023-03-08T15:02:12.872Z,9.18
2023-03-08T15:04:40.283Z,9.30
2023-03-08T15:07:07.688Z,9.39
2023-03-08T15:09:34.919Z,9.57
2023-03-08T15:12:01.738Z,9.89
2023-03-08T15:14:30.435Z,10.21
2023-03-08T15:16:58.156Z,10.54
2023-03-08T15:19:24.918Z,10.94
2023-03-08T15:21:51.490Z,11.07
2023-03-08T15:24:19.027Z,10.77
2023-03-08T15:26:46.023Z,10.62
2023-03-08T15:29:27.610Z,10.48
2023-03-08T15:31:54.309Z,10.25
2023-03-08T15:34:21.472Z,9.95
2023-03-08T15:36:52.704Z,9.85
2023-03-08T15:39:19.908Z,9.59
2023-03-08T15:41:47.659Z,9.61
2023-03-08T15:44:14.110Z,9.41
2023-03-08T15:46:40.640Z,9.36
2023-03-08T15:49:07.217Z,9.44
2023-03-08T15:51:35.946Z,9.49
2023-03-08T15:54:04.767Z,9.58
2023-03-08T15:56:31.458Z,9.42
2023-03-08T15:58:57.993Z,9.53
2023-03-08T16:01:26.556Z,9.55
2023-03-08T16:03:54.523Z,9.59
2023-03-08T16:06:21.938Z,9.44
2023-03-08T16:08:48.449Z,9.57
2023-03-08T16:11:17.199Z,9.61
2023-03-08T16:13:43.777Z,9.54
2023-03-08T16:16:10.296Z,9.57
2023-03-08T16:18:40.285Z,9.47
2023-03-08T16:21:10.744Z,9.33
2023-03-08T16:23:39.006Z,9.09
2023-03-08T16:26:15.835Z,9.05
2023-03-08T16:28:44.945Z,8.87
2023-03-08T16:31:12.157Z,8.87
2023-03-08T16:33:39.629Z,8.88
2023-03-08T16:36:06.419Z,8.79
2023-03-08T16:38:32.919Z,8.81
2023-03-08T16:41:12.215Z,8.77
2023-03-08T16:43:46.828Z,8.83
2023-03-08T16:46:15.722Z,8.80
2023-03-08T16:48:42.186Z,8.77
2023-03-08T16:51:14.262Z,8.85
2023-03-08T16:53:40.958Z,8.79
2023-03-08T16:56:07.844Z,8.81
2023-03-08T16:58:34.403Z,8.77
2023-03-08T17:01:00.859Z,8.75
2023-03-08T17:03:27.372Z,8.68
2023-03-08T17:05:53.947Z,8.55
2023-03-08T17:08:20.415Z,8.52
2023-03-08T17:10:46.872Z,8.49
2023-03-08T17:13:13.374Z,8.54
2023-03-08T17:15:41.828Z,8.66
2023-03-08T17:18:09.657Z,8.79
2023-03-08T17:20:43.264Z,8.65
2023-03-08T17:23:11.052Z,8.58
2023-03-08T17:25:41.041Z,8.55
2023-03-08T17:28:09.563Z,8.57
2023-03-08T17:30:39.418Z,8.56
2023-03-08T17:33:05.916Z,8.61
2023-03-08T17:35:32.737Z,8.59
2023-03-08T17:37:59.307Z,8.61
2023-03-08T17:40:25.778Z,8.67
2023-03-08T17:42:52.282Z,8.77
2023-03-08T17:45:18.844Z,8.83
2023-03-08T17:47:45.698Z,8.88
2023-03-08T17:50:13.375Z,8.93
2023-03-08T17:52:41.115Z,8.93
2023-03-08T17:55:08.390Z,8.96
2023-03-08T17:57:36.476Z,8.96
2023-03-08T18:00:05.535Z,8.95
2023-03-08T18:02:33.123Z,8.97
2023-03-08T18:04:59.806Z,8.93
2023-03-08T18:07:27.691Z,8.88
2023-03-08T18:09:54.226Z,8.95
2023-03-08T18:12:20.753Z,8.96
2023-03-08T18:14:50.390Z,8.97
2023-03-08T18:17:16.857Z,9.04
2023-03-08T18:19:43.471Z,9.13
2023-03-08T18:22:09.995Z,9.09
2023-03-08T18:24:36.608Z,9.08
2023-03-08T18:27:05.425Z,9.07
2023-03-08T18:29:33.996Z,8.98
2023-03-08T18:32:00.783Z,9.05
2023-03-08T18:34:28.089Z,9.02
2023-03-08T18:36:55.485Z,9.05
2023-03-08T18:39:21.945Z,9.06
2023-03-08T18:41:48.449Z,9.08
2023-03-08T18:44:14.907Z,9.07
2023-03-08T18:46:41.476Z,9.09
2023-03-08T18:49:11.513Z,9.02
2023-03-08T18:51:40.093Z,9.08
2023-03-08T18:54:09.134Z,8.99
2023-03-08T18:56:35.915Z,8.89
2023-03-08T18:59:04.774Z,8.83
2023-03-08T19:01:31.957Z,8.80
2023-03-08T19:04:00.277Z,8.87
2023-03-08T19:06:27.577Z,8.88
2023-03-08T19:08:54.202Z,8.88
2023-03-08T19:11:23.582Z,8.89
2023-03-08T19:13:50.411Z,8.90
2023-03-08T19:16:18.223Z,8.79
2023-03-08T19:18:45.337Z,8.69
2023-03-08T19:21:21.319Z,8.66
2023-03-08T19:23:48.179Z,8.70
2023-03-08T19:26:37.467Z,8.69
2023-03-08T19:29:20.695Z,8.61
2023-03-08T19:31:50.384Z,8.60
2023-03-08T19:34:17.582Z,8.62
2023-03-08T19:36:46.129Z,8.64
2023-03-08T19:39:15.223Z,8.61
2023-03-08T19:41:42.402Z,8.61
2023-03-08T19:44:09.098Z,8.54
2023-03-08T19:46:37.987Z,8.56
2023-03-08T19:49:06.160Z,8.50
2023-03-08T19:51:33.448Z,8.57
2023-03-08T19:53:59.907Z,8.50
2023-03-08T19:56:26.818Z,8.55
2023-03-08T19:58:57.265Z,8.48
2023-03-08T20:01:24.056Z,8.44
2023-03-08T20:03:50.752Z,8.62
2023-03-08T20:06:25.533Z,8.75
2023-03-08T20:08:53.001Z,8.79
2023-03-08T20:11:20.545Z,8.75
2023-03-08T20:13:47.117Z,8.80
2023-03-08T20:16:13.717Z,8.70
2023-03-08T20:18:40.484Z,8.68
2023-03-08T20:21:07.087Z,8.56
2023-03-08T20:23:33.806Z,8.51
2023-03-08T20:26:00.880Z,8.42
2023-03-08T20:28:27.766Z,8.36
2023-03-08T20:30:54.805Z,8.30
2023-03-08T20:33:21.781Z,8.31
2023-03-08T20:36:01.035Z,8.27
2023-03-08T20:38:28.004Z,8.24
2023-03-08T20:41:03.444Z,8.20
2023-03-08T20:43:30.889Z,8.27
2023-03-08T20:45:57.896Z,8.43
2023-03-08T20:48:24.501Z,8.36
2023-03-08T20:50:58.337Z,8.32
2023-03-08T20:53:24.865Z,8.34
2023-03-08T20:55:51.355Z,8.21
2023-03-08T20:58:17.850Z,8.17
2023-03-08T21:00:44.396Z,8.20
2023-03-08T21:03:10.951Z,8.11
2023-03-08T21:05:37.442Z,8.07
2023-03-08T21:08:04.388Z,8.00
2023-03-08T21:10:36.403Z,8.03
2023-03-08T21:13:03.600Z,8.13
2023-03-08T21:15:30.088Z,8.01
2023-03-08T21:17:56.572Z,8.03
2023-03-08T21:20:23.157Z,8.02
2023-03-08T21:22:49.645Z,8.38
2023-03-08T21:25:16.327Z,8.50
2023-03-08T21:27:43.153Z,8.70
2023-03-08T21:30:10.934Z,8.67
2023-03-08T21:32:37.653Z,8.68
2023-03-08T21:35:04.507Z,8.78
2023-03-08T21:37:31.066Z,8.54
2023-03-08T21:39:57.611Z,8.50
2023-03-08T21:42:24.574Z,8.52
2023-03-08T21:44:51.276Z,8.38
2023-03-08T21:47:17.816Z,8.39
2023-03-08T21:49:44.245Z,8.33
2023-03-08T21:52:10.778Z,8.26
2023-03-08T21:54:37.260Z,8.24
2023-03-08T21:57:04.139Z,8.24
2023-03-08T21:59:30.752Z,8.22
2023-03-08T22:01:58.710Z,8.28
2023-03-08T22:04:26.630Z,8.32
2023-03-08T22:06:55.444Z,8.10
2023-03-08T22:09:23.274Z,8.05
2023-03-08T22:11:49.801Z,7.98
2023-03-08T22:14:16.287Z,8.02
2023-03-08T22:16:42.777Z,8.00
2023-03-08T22:19:10.697Z,8.03
2023-03-08T22:21:37.222Z,8.25
2023-03-08T22:24:04.954Z,8.53
2023-03-08T22:26:32.408Z,8.53
2023-03-08T22:28:59.525Z,8.45
2023-03-08T22:31:28.538Z,8.42
2023-03-08T22:33:55.501Z,8.37
2023-03-08T22:36:22.591Z,8.29
2023-03-08T22:38:49.400Z,8.35
2023-03-08T22:41:20.101Z,8.23
2023-03-08T22:43:47.902Z,8.09
2023-03-08T22:46:20.527Z,7.97
2023-03-08T22:48:48.117Z,8.06
2023-03-08T22:51:15.929Z,8.07
2023-03-08T22:53:42.730Z,7.95
2023-03-08T22:56:29.473Z,7.91
2023-03-08T22:58:56.937Z,7.88
2023-03-08T23:01:24.792Z,7.85
2023-03-08T23:03:55.047Z,7.83
2023-03-08T23:06:21.770Z,7.93
2023-03-08T23:08:48.345Z,8.02
2023-03-08T23:11:14.998Z,8.04
2023-03-08T23:13:41.874Z,7.99
2023-03-08T23:16:11.251Z,8.00
2023-03-08T23:18:37.967Z,8.02
2023-03-08T23:21:06.784Z,8.06
2023-03-08T23:23:33.684Z,8.07
2023-03-08T23:26:02.494Z,8.07
2023-03-08T23:28:28.991Z,8.03
2023-03-08T23:30:55.494Z,8.01
2023-03-08T23:33:22.075Z,8.06
2023-03-08T23:35:49.432Z,8.10
2023-03-08T23:38:16.040Z,8.03
2023-03-08T23:40:43.081Z,8.03
2023-03-08T23:43:09.559Z,7.98
2023-03-08T23:45:39.082Z,8.01
2023-03-08T23:48:05.843Z,7.99
2023-03-08T23:50:32.328Z,7.97
2023-03-08T23:52:59.004Z,8.03
2023-03-08T23:55:25.526Z,7.99
2023-03-08T23:57:52.015Z,7.98
